Euskara    
Meteorología y climatología de Navarra
Datos de la estación - Meteo Navarra

Estación de Bardenas (El Yugo) GN

Altitud 486 m.


Datos desde el 08/04/2021 hasta el 09/04/2021 en horario solar
Los datos son PROVISIONALES

Anterior Página 1 de 1 Siguiente Descargar: Formato para Excel 2000 o superior   Formato csv   Formato para OpenOffice Calc
Fecha Temperatura Humedad relativa Radiación global Insolación Precipitación Vel. viento 10 m Vel. viento 10 m Dir. viento 10 m
°C % W/m² s l/m² m/s km/h °
08/04/2021 0:00 4.7 77 0.0 0 0.0 6.9 24.7 104
08/04/2021 0:10 4.6 78 0.0 0 0.0 6.3 22.8 102
08/04/2021 0:20 4.5 80 0.0 0 0.0 6.7 24.2 102
08/04/2021 0:30 4.5 81 0.0 0 0.0 6.9 24.7 100
08/04/2021 0:40 4.4 83 0.0 0 0.0 7.0 25.3 98
08/04/2021 0:50 4.3 84 0.0 0 0.0 7.2 25.8 101
08/04/2021 1:00 4.1 85 0.0 0 0.0 7.0 25.1 100
08/04/2021 1:10 4.1 86 0.0 0 0.0 6.5 23.4 92
08/04/2021 1:20 3.9 87 0.0 0 0.0 7.3 26.1 93
08/04/2021 1:30 4.0 88 0.0 0 0.0 7.2 26.0 95
08/04/2021 1:40 3.9 88 0.0 0 0.0 7.0 25.1 103
08/04/2021 1:50 4.0 89 0.0 0 0.0 6.9 24.8 105
08/04/2021 2:00 4.0 89 0.0 0 0.0 6.9 24.7 101
08/04/2021 2:10 4.2 88 0.0 0 0.0 7.5 27.1 102
08/04/2021 2:20 4.3 88 0.0 0 0.0 7.7 27.7 104
08/04/2021 2:30 4.2 88 0.0 0 0.0 7.3 26.3 102
08/04/2021 2:40 4.1 88 0.0 0 0.0 7.0 25.0 104
08/04/2021 2:50 4.2 88 0.0 0 0.0 7.3 26.2 104
08/04/2021 3:00 4.3 88 0.0 0 0.0 7.1 25.5 107
08/04/2021 3:10 4.3 88 0.0 0 0.0 6.5 23.5 109
08/04/2021 3:20 4.3 88 0.0 0 0.0 7.1 25.5 107
08/04/2021 3:30 4.2 88 0.0 0 0.0 6.7 24.0 109
08/04/2021 3:40 4.3 88 0.0 0 0.0 6.3 22.8 107
08/04/2021 3:50 4.2 88 0.0 0 0.0 5.5 19.9 111
08/04/2021 4:00 4.2 88 0.0 0 0.0 6.2 22.2 112
08/04/2021 4:10 4.2 88 0.0 0 0.0 5.4 19.6 111
08/04/2021 4:20 4.2 88 0.0 0 0.0 5.5 19.9 115
08/04/2021 4:30 4.3 88 0.0 0 0.0 5.2 18.7 118
08/04/2021 4:40 4.4 87 0.0 0 0.0 5.2 18.8 125
08/04/2021 4:50 4.5 86 0.0 0 0.0 4.7 17.1 124
08/04/2021 5:00 4.6 85 0.0 0 0.0 5.1 18.2 127
08/04/2021 5:10 4.7 85 0.0 0 0.0 4.5 16.1 130
08/04/2021 5:20 4.7 84 0.0 0 0.0 4.7 16.9 129
08/04/2021 5:30 4.8 84 0.0 0 0.0 4.2 15.1 128
08/04/2021 5:40 4.8 84 0.0 0 0.0 3.5 12.6 133
08/04/2021 5:50 4.9 84 0.0 0 0.0 3.3 11.9 136
08/04/2021 6:00 4.8 84 0.0 0 0.0 3.4 12.3 139
08/04/2021 6:10 4.7 84 10.5 0 0.0 3.4 12.3 142
08/04/2021 6:20 4.5 85 25.1 0 0.0 3.5 12.6 140
08/04/2021 6:30 4.7 85 33.9 0 0.0 3.3 12.0 135
08/04/2021 6:40 4.7 84 40.7 0 0.0 3.1 11.1 154
08/04/2021 6:50 4.6 85 56.7 0 0.0 3.1 11.0 138
08/04/2021 7:00 5.0 84 80.3 0 0.0 3.4 12.3 139
08/04/2021 7:10 5.5 82 92.6 0 0.0 3.5 12.5 131
08/04/2021 7:20 5.8 81 113.8 0 0.0 3.2 11.4 137
08/04/2021 7:30 6.0 80 130.6 0 0.0 3.2 11.6 153
08/04/2021 7:40 6.1 80 138.8 0 0.0 3.1 11.2 150
08/04/2021 7:50 6.3 80 147.8 0 0.0 3.1 11.0 154
08/04/2021 8:00 6.4 79 165.4 0 0.0 3.0 10.7 157
08/04/2021 8:10 6.9 78 202.4 0 0.0 2.5 9.0 138
08/04/2021 8:20 7.7 76 260.5 370 0.0 3.8 13.8 123
08/04/2021 8:30 7.9 74 311.6 562 0.0 4.6 16.7 122
08/04/2021 8:40 8.3 72 321.0 600 0.0 4.4 15.7 112
08/04/2021 8:50 8.6 71 418.2 600 0.0 4.8 17.3 111
08/04/2021 9:00 9.3 68 547.8 600 0.0 5.5 19.7 102
08/04/2021 9:10 10.4 63 640.9 600 0.0 5.0 18.0 107
08/04/2021 9:20 10.5 62 571.6 600 0.0 5.0 18.1 117
08/04/2021 9:30 10.3 63 500.1 554 0.0 4.9 17.5 122
08/04/2021 9:40 10.3 62 603.7 600 0.0 4.9 17.7 117
08/04/2021 9:50 11.1 60 642.2 600 0.0 4.6 16.7 111
08/04/2021 10:00 11.2 60 568.9 536 0.0 5.3 19.0 115
08/04/2021 10:10 10.9 61 534.5 446 0.0 4.9 17.7 109
08/04/2021 10:20 11.1 60 328.0 20 0.0 4.1 14.6 119
08/04/2021 10:30 10.8 61 369.0 36 0.0 3.5 12.7 116
08/04/2021 10:40 11.6 59 448.7 396 0.0 4.1 14.8 115
08/04/2021 10:50 12.5 57 546.5 356 0.0 4.4 15.8 95
08/04/2021 11:00 12.3 57 574.8 474 0.0 4.0 14.4 127
08/04/2021 11:10 12.4 57 613.1 378 0.0 4.3 15.3 115
08/04/2021 11:20 13.2 55 701.0 366 0.0 5.1 18.3 90
08/04/2021 11:30 14.1 52 796.7 516 0.0 5.2 18.7 93
08/04/2021 11:40 14.5 51 784.3 486 0.0 5.3 18.9 94
08/04/2021 11:50 15.4 49 893.0 600 0.0 5.1 18.3 98
08/04/2021 12:00 15.7 48 791.8 600 0.0 4.6 16.4 117
08/04/2021 12:10 15.4 48 678.1 588 0.0 3.2 11.5 120
08/04/2021 12:20 15.8 47 818.0 600 0.0 4.1 14.8 117
08/04/2021 12:30 15.6 47 596.2 558 0.0 4.5 16.1 89
08/04/2021 12:40 15.2 48 648.5 600 0.0 4.2 15.0 107
08/04/2021 12:50 15.8 47 772.6 548 0.0 4.8 17.3 101
08/04/2021 13:00 16.1 46 899.0 600 0.0 4.2 15.0 131
08/04/2021 13:10 16.5 44 871.0 600 0.0 3.7 13.3 129
08/04/2021 13:20 17.1 43 880.0 600 0.0 3.7 13.3 121
08/04/2021 13:30 16.9 44 692.1 600 0.0 4.8 17.4 107
08/04/2021 13:40 16.4 46 713.3 600 0.0 4.6 16.6 83
08/04/2021 13:50 17.1 44 867.0 600 0.0 5.7 20.5 85
08/04/2021 14:00 17.5 43 782.4 600 0.0 6.1 21.8 88
08/04/2021 14:10 17.4 43 780.1 600 0.0 6.0 21.5 85
08/04/2021 14:20 17.6 43 748.4 600 0.0 5.0 18.0 90
08/04/2021 14:30 17.7 43 721.7 600 0.0 5.7 20.6 83
08/04/2021 14:40 17.4 44 703.9 600 0.0 6.2 22.4 83
08/04/2021 14:50 17.4 44 679.8 600 0.0 5.7 20.6 80
08/04/2021 15:00 17.4 44 639.5 600 0.0 6.1 22.0 79
08/04/2021 15:10 17.0 45 474.0 600 0.0 5.9 21.1 82
08/04/2021 15:20 16.3 46 292.1 208 0.0 5.6 20.0 85
08/04/2021 15:30 16.0 48 449.1 530 0.0 5.3 19.0 89
08/04/2021 15:40 16.9 45 543.6 600 0.0 6.1 21.8 85
08/04/2021 15:50 17.2 44 463.1 600 0.0 5.7 20.3 88
08/04/2021 16:00 16.9 45 447.1 600 0.0 5.5 19.9 89
08/04/2021 16:10 17.0 45 430.5 600 0.0 5.9 21.3 89
08/04/2021 16:20 16.8 46 402.6 600 0.0 5.2 18.8 88
08/04/2021 16:30 16.8 46 361.7 600 0.0 5.2 18.8 90
08/04/2021 16:40 16.2 47 172.6 210 0.0 5.4 19.4 85
08/04/2021 16:50 15.1 50 119.8 72 0.0 5.2 18.5 91
08/04/2021 17:00 14.8 51 99.5 0 0.0 4.9 17.6 90
08/04/2021 17:10 14.5 52 75.9 0 0.0 4.9 17.5 89
08/04/2021 17:20 14.2 53 61.6 0 0.0 4.8 17.2 88
08/04/2021 17:30 14.1 53 62.8 0 0.0 4.8 17.3 88
08/04/2021 17:40 14.0 54 51.3 0 0.0 4.8 17.2 87
08/04/2021 17:50 13.8 55 38.4 0 0.0 4.8 17.4 88
08/04/2021 18:00 13.6 55 30.7 0 0.0 4.0 14.3 91
08/04/2021 18:10 13.4 56 26.0 0 0.0 4.2 15.2 90
08/04/2021 18:20 13.2 57 11.2 0 0.0 4.4 15.8 95
08/04/2021 18:30 12.9 58 0.0 0 0.0 4.4 15.7 95
08/04/2021 18:40 12.5 59 0.0 0 0.0 4.4 15.7 99
08/04/2021 18:50 12.3 60 0.0 0 0.0 4.6 16.7 102
08/04/2021 19:00 12.2 60 0.0 0 0.0 4.6 16.6 103
08/04/2021 19:10 12.1 60 0.0 0 0.0 4.2 15.1 98
08/04/2021 19:20 12.0 61 0.0 0 0.0 4.3 15.6 108
08/04/2021 19:30 12.1 60 0.0 0 0.0 4.9 17.7 110
08/04/2021 19:40 12.0 60 0.0 0 0.0 5.7 20.6 109
08/04/2021 19:50 12.0 60 0.0 0 0.0 5.2 18.9 107
08/04/2021 20:00 11.8 60 0.0 0 0.0 4.7 16.8 103
08/04/2021 20:10 11.6 61 0.0 0 0.0 4.8 17.2 103
08/04/2021 20:20 11.4 61 0.0 0 0.0 4.8 17.2 105
08/04/2021 20:30 11.3 62 0.0 0 0.0 4.6 16.5 107
08/04/2021 20:40 11.2 62 0.0 0 0.0 4.3 15.5 115
08/04/2021 20:50 11.2 62 0.0 0 0.0 3.8 13.6 112
08/04/2021 21:00 11.0 63 0.0 0 0.0 4.0 14.4 118
08/04/2021 21:10 10.8 63 0.0 0 0.0 3.8 13.6 116
08/04/2021 21:20 10.5 65 0.0 0 0.0 3.9 14.0 117
08/04/2021 21:30 10.2 67 0.0 0 0.0 4.2 14.9 115
08/04/2021 21:40 9.6 70 0.0 0 0.0 4.9 17.5 108
08/04/2021 21:50 9.4 71 0.0 0 0.0 4.1 14.8 104
08/04/2021 22:00 9.2 72 0.0 0 0.0 3.8 13.8 108
08/04/2021 22:10 9.5 71 0.0 0 0.0 4.2 15.3 118
08/04/2021 22:20 9.4 72 0.0 0 0.0 3.7 13.4 117
08/04/2021 22:30 8.9 76 0.0 0 0.0 3.1 11.0 112
08/04/2021 22:40 8.6 77 0.0 0 0.0 3.0 10.8 103
08/04/2021 22:50 8.4 79 0.0 0 0.0 3.7 13.4 109
08/04/2021 23:00 8.2 79 0.0 0 0.0 4.6 16.5 105
08/04/2021 23:10 8.1 78 0.0 0 0.0 5.1 18.3 105
08/04/2021 23:20 8.0 79 0.0 0 0.0 5.3 19.1 105
08/04/2021 23:30 7.8 80 0.0 0 0.0 5.4 19.5 98
08/04/2021 23:40 7.5 81 0.0 0 0.0 5.7 20.5 103
08/04/2021 23:50 7.2 82 0.0 0 0.0 5.7 20.5 103
Anterior Página 1 de 1 Siguiente

NOTA: Tipo de datos según el color:
   - Valores diarios o 10 minutos correctos
   - Valores diarios calculados a partir de un número de datos 10 minutos menor que 144 y mayor que 120, o de un número de datos semihorarios menor que 48 y mayor que 40 (caso de las estaciones de INTIA Y Ministerio)
   - Valores diez minutos estimados


Contacto        Enlaces        Aviso legal